Time;durP1;ratioP1;P1;durP2;ratioP2;P2;SDS_P1;SDS_P2;PMS_P1;PMS_P2;Temp;Humidity;BMP_temperature;BMP_pressure;BME280_temperature;BME280_humidity;BME280_pressure;Samples;Min_cycle;Max_cycle;Signal;HPM_P1;HPM_P2
2023/07/09 00:00:13;;;;;;;7.60;6.30;;;22.80;99.90;;;;;;5096877;28;20468;-60
2023/07/09 00:02:41;;;;;;;7.53;6.77;;;22.80;99.90;;;;;;5097361;28;20543;-60
2023/07/09 00:05:14;;;;;;;8.00;7.20;;;22.70;99.90;;;;;;5097183;28;20486;-60
2023/07/09 00:07:42;;;;;;;7.20;6.43;;;22.70;99.90;;;;;;5097089;28;20465;-60
2023/07/09 00:10:17;;;;;;;6.97;6.17;;;22.70;99.90;;;;;;5097091;28;20815;-60
2023/07/09 00:12:45;;;;;;;7.03;6.10;;;22.60;99.90;;;;;;5097274;28;20487;-60
2023/07/09 00:15:13;;;;;;;9.13;6.40;;;22.60;99.90;;;;;;5096955;28;20547;-59
2023/07/09 00:17:41;;;;;;;10.47;7.70;;;22.50;99.90;;;;;;5096630;28;20467;-60
2023/07/09 00:20:16;;;;;;;7.30;6.63;;;22.40;99.90;;;;;;5097138;28;20464;-59
2023/07/09 00:22:47;;;;;;;9.17;6.90;;;22.40;99.90;;;;;;5096501;28;20482;-59
2023/07/09 00:25:16;;;;;;;7.40;6.60;;;22.40;99.90;;;;;;5096793;28;20506;-60
2023/07/09 00:27:46;;;;;;;8.37;6.30;;;22.30;99.90;;;;;;5096621;28;20559;-60
2023/07/09 00:30:19;;;;;;;8.00;7.20;;;22.20;99.90;;;;;;5097046;28;20464;-60
2023/07/09 00:32:47;;;;;;;8.20;6.40;;;22.10;99.90;;;;;;5099393;28;20858;-60
2023/07/09 00:35:16;;;;;;;8.27;7.40;;;22.10;99.90;;;;;;5100472;28;20445;-60
2023/07/09 00:37:44;;;;;;;9.97;7.00;;;22.10;99.90;;;;;;5100119;28;20538;-60
2023/07/09 00:40:25;;;;;;;7.10;5.90;;;22.20;99.90;;;;;;5100115;28;20587;-60
2023/07/09 00:42:58;;;;;;;8.77;6.73;;;22.20;99.90;;;;;;5099938;28;20558;-59
2023/07/09 00:45:27;;;;;;;8.50;6.80;;;22.10;99.90;;;;;;5100323;28;20435;-59
2023/07/09 00:47:57;;;;;;;8.30;7.00;;;22.00;99.90;;;;;;5100487;28;20478;-60
2023/07/09 00:50:41;;;;;;;8.50;7.57;;;21.90;99.90;;;;;;5100611;28;20558;-60
2023/07/09 00:53:18;;;;;;;8.10;7.30;;;21.90;99.90;;;;;;5100039;28;20499;-60
2023/07/09 00:55:49;;;;;;;7.17;6.30;;;21.90;99.90;;;;;;5100466;28;20533;-60
2023/07/09 00:58:21;;;;;;;8.20;7.10;;;21.90;99.90;;;;;;5100055;28;20498;-60
2023/07/09 01:00:52;;;;;;;7.83;6.47;;;21.80;99.90;;;;;;5099849;28;20480;-60
2023/07/09 01:03:29;;;;;;;9.30;7.20;;;21.70;99.90;;;;;;5099529;28;20463;-60
2023/07/09 01:05:59;;;;;;;7.90;6.50;;;21.70;99.90;;;;;;5099909;28;20438;-60
2023/07/09 01:08:30;;;;;;;8.97;6.97;;;21.70;99.90;;;;;;5099546;28;20488;-60
2023/07/09 01:10:59;;;;;;;7.93;6.40;;;21.60;99.90;;;;;;5099445;28;20500;-60
2023/07/09 01:13:27;;;;;;;6.87;6.17;;;21.70;99.90;;;;;;5099629;28;20492;-60
2023/07/09 01:15:55;;;;;;;7.30;6.43;;;21.60;99.90;;;;;;5099961;28;20563;-60
2023/07/09 01:18:24;;;;;;;7.83;6.93;;;21.50;99.90;;;;;;5100113;28;20757;-60
2023/07/09 01:20:53;;;;;;;9.60;6.60;;;21.40;99.90;;;;;;5099931;28;20464;-59
2023/07/09 01:23:22;;;;;;;7.07;6.07;;;21.40;99.90;;;;;;5099352;28;20457;-60
2023/07/09 01:25:54;;;;;;;8.83;7.10;;;21.50;99.90;;;;;;5099565;28;20758;-60
2023/07/09 01:28:22;;;;;;;6.50;5.60;;;21.50;99.90;;;;;;5099090;28;20460;-60
2023/07/09 01:30:53;;;;;;;8.03;6.10;;;21.50;99.90;;;;;;5098995;28;20832;-59
2023/07/09 01:33:22;;;;;;;8.30;6.63;;;21.50;99.90;;;;;;5099050;28;20772;-60
2023/07/09 01:35:49;;;;;;;7.87;7.07;;;21.50;99.90;;;;;;5099217;28;20472;-60
2023/07/09 01:38:17;;;;;;;7.63;6.83;;;21.50;99.90;;;;;;5099427;28;20468;-60
2023/07/09 01:40:46;;;;;;;9.80;7.33;;;21.40;99.90;;;;;;5098805;28;20488;-60
2023/07/09 01:43:13;;;;;;;7.07;6.30;;;21.40;99.90;;;;;;5098406;28;20462;-60
2023/07/09 01:45:41;;;;;;;7.73;6.67;;;21.40;99.90;;;;;;5099268;28;20460;-60
2023/07/09 01:48:15;;;;;;;7.40;6.20;;;21.40;99.90;;;;;;5099215;28;20435;-59
2023/07/09 01:50:43;;;;;;;11.10;6.67;;;21.30;99.90;;;;;;5098692;28;20468;-60
2023/07/09 01:53:12;;;;;;;8.13;7.10;;;21.20;99.90;;;;;;5099157;28;20492;-59
2023/07/09 01:55:40;;;;;;;8.93;6.33;;;21.20;99.90;;;;;;5098784;28;20472;-60
2023/07/09 01:58:08;;;;;;;7.67;6.93;;;21.20;99.90;;;;;;5099011;28;20571;-59
2023/07/09 02:00:36;;;;;;;8.50;6.47;;;21.10;99.90;;;;;;5099044;28;20889;-59
2023/07/09 02:03:04;;;;;;;8.37;6.90;;;21.00;99.90;;;;;;5098729;28;20456;-60
2023/07/09 02:05:33;;;;;;;7.43;6.50;;;21.00;99.90;;;;;;5094286;28;20767;-60
2023/07/09 02:08:00;;;;;;;8.53;6.60;;;20.90;99.90;;;;;;5078535;28;20479;-59
2023/07/09 02:10:27;;;;;;;7.47;6.40;;;20.80;99.90;;;;;;5078695;28;20464;-60
2023/07/09 02:12:55;;;;;;;9.83;6.47;;;20.80;99.90;;;;;;5077999;28;20500;-60
2023/07/09 02:15:23;;;;;;;11.60;7.07;;;20.90;99.90;;;;;;5078220;28;20514;-60
2023/07/09 02:17:52;;;;;;;9.10;7.03;;;20.90;99.90;;;;;;5078133;28;20551;-60
2023/07/09 02:20:22;;;;;;;7.50;6.80;;;20.80;99.90;;;;;;5078525;28;20556;-59
2023/07/09 02:22:51;;;;;;;9.67;6.80;;;20.80;99.90;;;;;;5077945;28;20453;-60
2023/07/09 02:25:19;;;;;;;7.77;6.77;;;20.70;99.90;;;;;;5078027;28;20468;-59
2023/07/09 02:27:46;;;;;;;7.73;6.80;;;20.60;99.90;;;;;;5077926;28;20439;-59
2023/07/09 02:30:13;;;;;;;7.93;6.60;;;20.70;99.90;;;;;;5077606;28;20469;-60
2023/07/09 02:32:42;;;;;;;8.13;7.13;;;20.50;99.90;;;;;;5078067;28;20470;-60
2023/07/09 02:35:09;;;;;;;8.67;7.77;;;20.50;99.90;;;;;;5077725;28;20533;-60
2023/07/09 02:37:37;;;;;;;8.87;6.83;;;20.50;99.90;;;;;;5077874;28;20788;-59
2023/07/09 02:40:08;;;;;;;8.23;6.90;;;20.50;99.90;;;;;;5077527;28;20485;-60
2023/07/09 02:42:38;;;;;;;7.50;6.17;;;20.50;99.90;;;;;;5077885;28;20491;-59
2023/07/09 02:45:07;;;;;;;7.67;6.13;;;20.40;99.90;;;;;;5077404;28;20556;-60
2023/07/09 02:47:34;;;;;;;7.13;6.47;;;20.30;99.90;;;;;;5077723;28;20461;-59
2023/07/09 02:50:04;;;;;;;7.77;7.07;;;20.30;99.90;;;;;;5077919;28;20511;-60
2023/07/09 02:52:31;;;;;;;8.73;6.80;;;20.20;99.90;;;;;;5077948;28;20465;-60
2023/07/09 02:54:58;;;;;;;9.17;7.73;;;20.20;99.90;;;;;;5077172;28;20493;-59
2023/07/09 02:57:26;;;;;;;9.03;7.00;;;20.20;99.90;;;;;;5077473;28;20556;-59
2023/07/09 02:59:53;;;;;;;8.30;6.60;;;20.10;99.90;;;;;;5077384;28;20518;-59
2023/07/09 03:02:20;;;;;;;8.40;6.77;;;20.20;99.90;;;;;;5077551;28;20561;-60
2023/07/09 03:04:47;;;;;;;8.63;7.43;;;20.20;99.90;;;;;;5077211;28;20493;-59
2023/07/09 03:07:16;;;;;;;8.50;7.57;;;20.10;99.90;;;;;;5077332;28;20461;-60
2023/07/09 03:09:43;;;;;;;8.50;6.93;;;20.10;99.90;;;;;;5077167;28;20457;-60
2023/07/09 03:12:11;;;;;;;8.83;7.13;;;20.10;99.90;;;;;;5077661;28;20556;-59
2023/07/09 03:14:38;;;;;;;8.00;7.20;;;20.10;99.90;;;;;;5077511;28;20495;-59
2023/07/09 03:17:05;;;;;;;8.40;7.70;;;20.00;99.90;;;;;;5077186;28;20534;-59
2023/07/09 03:19:33;;;;;;;7.80;6.80;;;20.00;99.90;;;;;;5076967;28;20551;-60
2023/07/09 03:22:00;;;;;;;7.97;7.20;;;20.00;99.90;;;;;;5077300;28;20487;-59
2023/07/09 03:24:28;;;;;;;7.97;7.27;;;20.00;99.90;;;;;;5077498;28;20459;-60
2023/07/09 03:26:56;;;;;;;9.67;7.50;;;19.90;99.90;;;;;;5077169;28;20937;-59
2023/07/09 03:29:23;;;;;;;6.90;6.20;;;19.90;99.90;;;;;;5076911;28;20487;-59
2023/07/09 03:31:50;;;;;;;8.70;7.20;;;19.80;99.90;;;;;;5076928;28;20501;-59
2023/07/09 03:34:17;;;;;;;8.23;7.10;;;19.70;99.90;;;;;;5077199;28;20489;-60
2023/07/09 03:36:47;;;;;;;7.73;6.93;;;19.60;99.90;;;;;;5076786;28;20500;-60
2023/07/09 03:39:14;;;;;;;11.43;6.97;;;19.60;99.90;;;;;;5076535;28;20555;-60
2023/07/09 03:41:42;;;;;;;9.70;7.10;;;19.60;99.90;;;;;;5076786;28;20572;-59
2023/07/09 03:44:10;;;;;;;9.10;8.20;;;19.50;99.90;;;;;;5077008;28;20457;-59
2023/07/09 03:46:37;;;;;;;7.90;7.10;;;19.50;99.90;;;;;;5076435;28;20555;-59
2023/07/09 03:49:04;;;;;;;7.37;6.63;;;19.50;99.90;;;;;;5076859;28;20560;-60
2023/07/09 03:51:31;;;;;;;8.00;7.20;;;19.40;99.90;;;;;;5076704;28;20463;-59
2023/07/09 03:53:58;;;;;;;11.20;8.30;;;19.50;99.90;;;;;;5076780;28;20583;-59
2023/07/09 03:56:25;;;;;;;7.93;6.70;;;19.50;99.90;;;;;;5076951;28;20560;-59
2023/07/09 03:58:54;;;;;;;7.70;6.67;;;19.40;99.90;;;;;;5076667;28;20565;-60
2023/07/09 04:01:21;;;;;;;8.50;6.87;;;19.40;99.90;;;;;;5076667;28;20512;-59
2023/07/09 04:03:49;;;;;;;7.97;7.17;;;19.40;1.00;;;;;;5076817;28;20461;-60
2023/07/09 04:06:16;;;;;;;8.13;7.20;;;19.30;99.90;;;;;;5076952;28;20910;-59
2023/07/09 04:08:43;;;;;;;8.00;7.20;;;19.40;99.90;;;;;;5080871;28;20461;-60
2023/07/09 04:11:12;;;;;;;8.80;7.37;;;19.50;99.90;;;;;;5080409;28;20515;-59
2023/07/09 04:13:40;;;;;;;8.13;7.33;;;19.60;99.90;;;;;;5080673;28;20497;-60
2023/07/09 04:16:08;;;;;;;9.83;7.57;;;19.60;99.90;;;;;;5080737;28;20882;-59
2023/07/09 04:18:36;;;;;;;8.13;7.33;;;19.60;1.00;;;;;;5080686;28;20465;-60
2023/07/09 04:21:04;;;;;;;8.13;7.40;;;19.60;1.00;;;;;;5080424;28;20464;-60
2023/07/09 04:23:31;;;;;;;8.37;7.47;;;19.70;99.90;;;;;;5080210;28;20461;-59
2023/07/09 04:25:58;;;;;;;8.77;6.90;;;19.70;99.90;;;;;;5089930;28;20456;-59
2023/07/09 04:28:25;;;;;;;8.40;7.60;;;19.70;99.90;;;;;;5101025;28;20563;-60
2023/07/09 04:30:53;;;;;;;9.67;7.10;;;19.80;99.90;;;;;;5099708;28;20460;-59
2023/07/09 04:33:22;;;;;;;10.10;8.00;;;19.80;99.90;;;;;;5100944;28;20464;-60
2023/07/09 04:35:50;;;;;;;9.73;6.97;;;19.80;99.90;;;;;;5100440;28;20587;-59
2023/07/09 04:38:17;;;;;;;7.80;6.60;;;19.90;99.90;;;;;;5100809;28;20534;-60
2023/07/09 04:40:45;;;;;;;7.30;6.60;;;19.90;99.90;;;;;;5100013;28;20491;-60
2023/07/09 04:43:12;;;;;;;9.33;8.03;;;19.90;99.90;;;;;;5100100;28;20554;-59
2023/07/09 04:45:39;;;;;;;13.47;7.57;;;19.90;99.90;;;;;;5100470;28;20666;-59
2023/07/09 04:48:07;;;;;;;7.87;7.10;;;20.00;99.90;;;;;;5100313;28;20466;-59
2023/07/09 04:50:36;;;;;;;8.40;7.60;;;20.10;99.90;;;;;;5100059;28;20530;-59
2023/07/09 04:53:03;;;;;;;7.33;6.57;;;20.10;99.90;;;;;;5099849;28;20461;-59
2023/07/09 04:55:30;;;;;;;8.57;7.20;;;20.20;1.00;;;;;;5096412;28;20492;-60
2023/07/09 04:57:58;;;;;;;7.63;6.83;;;20.30;1.00;;;;;;5100151;28;20467;-60
2023/07/09 05:00:25;;;;;;;11.77;7.80;;;20.30;99.90;;;;;;5099822;28;20499;-60
2023/07/09 05:02:52;;;;;;;7.80;7.03;;;20.30;99.90;;;;;;5099904;28;20467;-60
2023/07/09 05:05:19;;;;;;;8.80;7.20;;;20.40;92.50;;;;;;5099323;28;20843;-60
2023/07/09 05:07:48;;;;;;;8.80;7.23;;;20.40;99.90;;;;;;5099330;28;20461;-60
2023/07/09 05:10:16;;;;;;;9.87;7.50;;;20.50;99.90;;;;;;5099972;28;20560;-60
2023/07/09 05:12:51;;;;;;;11.20;7.17;;;20.50;99.90;;;;;;5100023;28;20466;-60
2023/07/09 05:15:19;;;;;;;11.00;7.90;;;20.70;99.90;;;;;;5100134;28;20582;-60
2023/07/09 05:17:46;;;;;;;7.60;6.90;;;20.80;99.90;;;;;;5099323;28;20456;-61
2023/07/09 05:20:14;;;;;;;8.20;7.40;;;20.90;99.90;;;;;;5098988;28;20460;-61
2023/07/09 05:22:41;;;;;;;8.27;7.10;;;21.10;1.00;;;;;;5098794;28;20464;-61
2023/07/09 05:25:11;;;;;;;8.83;7.93;;;21.20;99.90;;;;;;5097926;28;20473;-61
2023/07/09 05:27:39;;;;;;;7.20;6.57;;;21.30;1.00;;;;;;5097398;28;20550;-61
2023/07/09 05:30:07;;;;;;;8.50;7.70;;;21.40;99.90;;;;;;5098121;28;20562;-61
2023/07/09 05:32:35;;;;;;;8.27;7.37;;;21.60;99.90;;;;;;5079684;28;20514;-61
2023/07/09 05:35:02;;;;;;;8.33;7.00;;;21.80;99.90;;;;;;5098089;28;20496;-61
2023/07/09 05:37:29;;;;;;;8.37;6.47;;;21.90;99.90;;;;;;5098025;28;20889;-61
2023/07/09 05:39:56;;;;;;;7.80;7.10;;;22.10;50.70;;;;;;5097467;28;20820;-61
2023/07/09 05:42:25;;;;;;;7.00;6.40;;;22.20;1.00;;;;;;5098570;28;20510;-61
2023/07/09 05:44:55;;;;;;;7.30;6.43;;;22.40;1.00;;;;;;5097970;28;20451;-61
2023/07/09 05:47:22;;;;;;;7.50;6.80;;;22.60;1.00;;;;;;5096814;28;20585;-61
2023/07/09 05:49:50;;;;;;;9.10;7.80;;;22.70;1.00;;;;;;5096651;28;20825;-61
2023/07/09 05:52:18;;;;;;;7.70;6.90;;;23.00;1.00;;;;;;5097134;28;20464;-61
2023/07/09 05:54:45;;;;;;;7.90;7.10;;;23.20;1.00;;;;;;5097041;28;20574;-61
2023/07/09 05:57:13;;;;;;;7.83;6.27;;;23.40;1.00;;;;;;5096738;28;20984;-62
2023/07/09 05:59:41;;;;;;;8.00;6.70;;;23.60;1.00;;;;;;5096705;28;20468;-62
2023/07/09 06:02:12;;;;;;;6.97;6.37;;;23.80;1.00;;;;;;5098398;28;20470;-61
2023/07/09 06:04:39;;;;;;;7.83;6.23;;;24.10;1.00;;;;;;5098751;28;20442;-61
2023/07/09 06:07:07;;;;;;;8.90;6.87;;;24.30;1.00;;;;;;5098744;28;20460;-61
2023/07/09 06:09:34;;;;;;;7.37;6.63;;;24.40;99.90;;;;;;5098561;28;20555;-61
2023/07/09 06:12:02;;;;;;;7.07;6.37;;;24.70;1.00;;;;;;5098673;28;20563;-61
2023/07/09 06:14:29;;;;;;;7.70;6.63;;;24.90;99.90;;;;;;5098169;28;20787;-61
2023/07/09 06:16:58;;;;;;;7.63;6.83;;;25.20;99.90;;;;;;5097944;28;20460;-62
2023/07/09 06:19:25;;;;;;;7.47;6.50;;;25.40;99.90;;;;;;5096144;28;20861;-61
2023/07/09 06:21:52;;;;;;;7.60;6.90;;;25.50;99.90;;;;;;5098527;28;20529;-62
2023/07/09 06:24:20;;;;;;;6.87;6.13;;;25.60;99.90;;;;;;5098866;28;20496;-61
2023/07/09 06:26:47;;;;;;;10.60;6.90;;;25.80;99.90;;;;;;5097987;28;20449;-61
2023/07/09 06:29:14;;;;;;;8.83;6.93;;;25.90;99.90;;;;;;5089859;28;20481;-61
2023/07/09 06:31:42;;;;;;;8.33;6.30;;;26.20;99.90;;;;;;5077828;28;20475;-61
2023/07/09 06:34:11;;;;;;;6.57;5.97;;;26.30;99.90;;;;;;5078047;28;20934;-62
2023/07/09 06:36:38;;;;;;;12.70;6.93;;;26.50;99.90;;;;;;5078095;28;20891;-61
2023/07/09 06:39:06;;;;;;;10.40;6.97;;;26.70;99.90;;;;;;5076959;28;20579;-61
2023/07/09 06:41:38;;;;;;;7.10;6.43;;;26.70;34.70;;;;;;5079001;28;20472;-61
2023/07/09 06:44:06;;;;;;;8.20;6.90;;;27.00;32.80;;;;;;5097104;28;20515;-62
2023/07/09 06:46:33;;;;;;;7.63;5.87;;;27.20;56.00;;;;;;5098372;28;20500;-62
2023/07/09 06:49:01;;;;;;;7.53;6.83;;;27.30;1.00;;;;;;5097757;28;20543;-61
2023/07/09 06:51:29;;;;;;;7.63;6.80;;;27.50;1.00;;;;;;5093086;28;20454;-62
2023/07/09 06:53:57;;;;;;;7.83;6.47;;;27.60;1.00;;;;;;5077981;28;20492;-62
2023/07/09 06:56:25;;;;;;;7.13;6.37;;;27.70;1.00;;;;;;5077618;28;20776;-62
2023/07/09 06:58:52;;;;;;;9.30;6.90;;;28.00;1.00;;;;;;5077851;28;20555;-61
2023/07/09 07:01:19;;;;;;;7.73;6.27;;;28.10;1.00;;;;;;5077399;28;20851;-62
2023/07/09 07:03:47;;;;;;;6.93;6.10;;;28.30;1.00;;;;;;5077610;28;20564;-63
2023/07/09 07:06:15;;;;;;;9.33;6.47;;;28.60;1.00;;;;;;5077522;28;20543;-63
2023/07/09 07:08:44;;;;;;;6.90;5.97;;;28.70;1.00;;;;;;5077628;28;20457;-63
2023/07/09 07:11:11;;;;;;;8.00;7.30;;;28.80;1.00;;;;;;5077386;28;20468;-62
2023/07/09 07:13:40;;;;;;;6.93;6.23;;;28.90;1.00;;;;;;5077327;28;20503;-62
2023/07/09 07:16:10;;;;;;;8.57;6.30;;;29.00;1.00;;;;;;5077196;28;20497;-62
2023/07/09 07:18:38;;;;;;;7.00;6.40;;;29.10;1.00;;;;;;5077723;28;20465;-61
2023/07/09 07:21:06;;;;;;;6.13;5.60;;;29.30;1.00;;;;;;5077218;28;20556;-61
2023/07/09 07:23:33;;;;;;;7.07;6.47;;;29.50;1.00;;;;;;5077616;28;20536;-62
2023/07/09 07:26:03;;;;;;;8.63;7.20;;;29.70;1.00;;;;;;5076872;28;20519;-62
2023/07/09 07:28:31;;;;;;;7.80;7.10;;;30.00;1.00;;;;;;5077287;28;20461;-62
2023/07/09 07:31:01;;;;;;;8.77;7.40;;;30.10;1.00;;;;;;5077043;28;20500;-62
2023/07/09 07:33:29;;;;;;;6.90;6.20;;;30.20;99.90;;;;;;5076784;28;20496;-62
2023/07/09 07:35:56;;;;;;;9.67;7.33;;;30.30;99.90;;;;;;5077196;28;20493;-62
2023/07/09 07:38:23;;;;;;;9.43;7.00;;;30.50;99.90;;;;;;5077462;28;20461;-62
2023/07/09 07:40:51;;;;;;;7.47;6.77;;;30.70;99.90;;;;;;5076096;28;20542;-62
2023/07/09 07:43:19;;;;;;;8.23;7.53;;;31.00;99.90;;;;;;5076385;28;20436;-62
2023/07/09 07:45:48;;;;;;;9.93;7.67;;;31.10;99.90;;;;;;5076530;28;20457;-62
2023/07/09 07:48:16;;;;;;;7.20;6.50;;;31.30;99.90;;;;;;5077302;28;20495;-62
2023/07/09 07:50:45;;;;;;;7.50;6.90;;;31.50;99.90;;;;;;5077067;28;20475;-62
2023/07/09 07:53:13;;;;;;;7.57;6.83;;;31.70;99.90;;;;;;5076878;28;20463;-62
2023/07/09 07:55:41;;;;;;;8.70;7.83;;;31.80;99.90;;;;;;5076753;28;20499;-62
2023/07/09 07:58:10;;;;;;;9.93;7.23;;;32.00;99.90;;;;;;5092414;28;20467;-63
2023/07/09 08:00:39;;;;;;;8.83;7.97;;;32.10;99.90;;;;;;5095849;28;20807;-62
2023/07/09 08:03:07;;;;;;;9.33;6.97;;;32.40;99.90;;;;;;5095411;28;20460;-63
2023/07/09 08:05:34;;;;;;;8.83;7.93;;;32.50;99.90;;;;;;5095793;28;20459;-63
2023/07/09 08:08:02;;;;;;;11.40;7.70;;;32.60;99.90;;;;;;5094716;28;20467;-63
2023/07/09 08:10:29;;;;;;;8.60;7.80;;;32.80;99.90;;;;;;5094435;28;20465;-63
2023/07/09 08:12:57;;;;;;;10.20;7.60;;;32.80;99.90;;;;;;5096018;28;20463;-63
2023/07/09 08:15:24;;;;;;;8.67;7.80;;;33.10;99.90;;;;;;5096329;28;20490;-62
2023/07/09 08:17:53;;;;;;;9.13;8.33;;;33.20;99.90;;;;;;5095217;28;20460;-63
2023/07/09 08:20:20;;;;;;;8.43;7.57;;;33.40;76.30;;;;;;5094728;28;20470;-62
2023/07/09 08:22:48;;;;;;;8.87;7.60;;;33.40;93.90;;;;;;5094673;28;20460;-63
2023/07/09 08:25:15;;;;;;;8.50;7.27;;;33.60;55.20;;;;;;5095230;28;20757;-62
2023/07/09 08:27:42;;;;;;;10.13;7.93;;;33.80;76.20;;;;;;5095571;28;20547;-63
2023/07/09 08:30:10;;;;;;;9.90;8.90;;;34.20;58.70;;;;;;5096272;28;20459;-63
2023/07/09 08:32:38;;;;;;;9.33;7.63;;;34.30;19.90;;;;;;5094639;28;20542;-62
2023/07/09 08:35:10;;;;;;;8.47;7.57;;;34.10;2.70;;;;;;5094560;28;20488;-63
2023/07/09 08:37:37;;;;;;;8.30;7.20;;;34.40;6.30;;;;;;5093737;28;20558;-63
2023/07/09 08:40:06;;;;;;;8.43;6.73;;;34.60;1.00;;;;;;5093714;28;20484;-63
2023/07/09 08:42:41;;;;;;;7.93;7.00;;;34.80;1.00;;;;;;5096184;28;20459;-62
2023/07/09 08:45:25;;;;;;;8.83;6.90;;;34.80;1.00;;;;;;5095689;28;20461;-63
2023/07/09 08:48:02;;;;;;;7.80;7.20;;;34.90;1.00;;;;;;5095867;28;20466;-63
2023/07/09 08:50:38;;;;;;;7.30;6.70;;;34.90;1.00;;;;;;5095988;28;20490;-62
2023/07/09 08:53:07;;;;;;;7.97;7.17;;;35.30;1.00;;;;;;5096136;28;20455;-63
2023/07/09 08:55:40;;;;;;;8.43;7.77;;;35.30;1.00;;;;;;5099040;28;20505;-62
2023/07/09 08:58:15;;;;;;;11.90;7.30;;;35.40;1.00;;;;;;5099375;28;20263;-62
2023/07/09 09:00:51;;;;;;;7.25;6.53;;;35.70;1.00;;;;;;5099484;28;20610;-62
2023/07/09 09:03:30;;;;;;;6.45;5.85;;;35.40;1.00;;;;;;5098951;28;20690;-62
2023/07/09 09:05:59;;;;;;;8.40;6.75;;;35.60;1.00;;;;;;5099256;28;20614;-63
2023/07/09 09:08:39;;;;;;;7.65;6.85;;;36.00;1.00;;;;;;5100167;28;20501;-63
2023/07/09 09:11:15;;;;;;;8.35;6.43;;;36.10;1.00;;;;;;5099638;28;20206;-62
2023/07/09 09:13:45;;;;;;;7.00;6.40;;;36.00;1.00;;;;;;5099510;28;20216;-62
2023/07/09 09:16:21;;;;;;;7.70;7.00;;;36.10;1.00;;;;;;5099568;28;20275;-63
2023/07/09 09:18:49;;;;;;;6.43;5.72;;;36.40;1.00;;;;;;5099712;28;20304;-63
2023/07/09 09:21:24;;;;;;;6.57;5.97;;;36.60;1.00;;;;;;5099514;28;20206;-62
2023/07/09 09:23:53;;;;;;;6.80;6.18;;;36.60;1.00;;;;;;5100111;28;20649;-62
2023/07/09 09:26:28;;;;;;;6.32;5.70;;;37.00;1.00;;;;;;5099852;28;20502;-62
2023/07/09 09:28:55;;;;;;;6.93;6.38;;;37.40;1.00;;;;;;5099517;28;20205;-64
2023/07/09 09:31:25;;;;;;;5.45;4.95;;;37.30;1.00;;;;;;5099855;28;20498;-63
2023/07/09 09:33:52;;;;;;;6.22;5.63;;;37.40;1.00;;;;;;5099568;28;20529;-63
2023/07/09 09:36:24;;;;;;;6.50;5.97;;;37.40;1.00;;;;;;5099800;28;20272;-62
2023/07/09 09:38:53;;;;;;;8.02;5.97;;;37.00;1.00;;;;;;5098751;28;20242;-62
2023/07/09 09:41:22;;;;;;;6.85;5.38;;;36.60;1.00;;;;;;5099131;28;20302;-62
2023/07/09 09:43:53;;;;;;;13.05;6.07;;;37.00;1.00;;;;;;5099273;28;20206;-62
2023/07/09 09:46:26;;;;;;;8.75;6.50;;;37.30;1.00;;;;;;5099753;28;20208;-59
2023/07/09 09:48:56;;;;;;;7.93;5.70;;;37.40;1.00;;;;;;5098938;28;20304;-62
2023/07/09 09:51:26;;;;;;;7.68;6.25;;;37.40;1.00;;;;;;5099306;28;20219;-61
2023/07/09 09:53:58;;;;;;;6.40;5.80;;;37.30;1.00;;;;;;5099268;28;20479;-62
2023/07/09 09:56:29;;;;;;;6.50;5.90;;;37.50;1.00;;;;;;5099497;28;20260;-61
2023/07/09 09:58:58;;;;;;;6.55;5.88;;;37.50;1.00;;;;;;5098751;28;20297;-62
2023/07/09 10:01:30;;;;;;;6.07;5.57;;;37.70;1.00;;;;;;5098643;28;20252;-62
2023/07/09 10:03:59;;;;;;;7.43;6.18;;;37.70;1.00;;;;;;5098419;28;20212;-64
2023/07/09 10:06:37;;;;;;;6.60;6.00;;;38.00;1.00;;;;;;5098578;28;20208;-64
2023/07/09 10:09:15;;;;;;;6.25;5.00;;;38.00;1.00;;;;;;5098522;28;20292;-63
2023/07/09 10:11:47;;;;;;;7.40;5.53;;;38.10;1.00;;;;;;5098625;28;20264;-60
2023/07/09 10:14:35;;;;;;;6.45;5.85;;;38.20;1.00;;;;;;5096452;28;20625;-62
2023/07/09 10:17:07;;;;;;;9.70;5.75;;;38.40;1.00;;;;;;5096985;28;20331;-61
2023/07/09 10:19:44;;;;;;;6.90;6.20;;;38.40;1.00;;;;;;5098549;28;20205;-62
2023/07/09 10:22:23;;;;;;;6.47;5.88;;;38.20;1.00;;;;;;5098708;28;20219;-62
2023/07/09 10:25:03;;;;;;;6.82;5.57;;;38.40;1.00;;;;;;5098237;28;20212;-62
2023/07/09 10:27:38;;;;;;;5.78;5.28;;;38.40;1.00;;;;;;5098309;28;20255;-62
2023/07/09 10:30:34;;;;;;;6.32;5.75;;;38.40;1.00;;;;;;5098377;28;20251;-63
2023/07/09 10:33:09;;;;;;;5.75;5.25;;;38.20;1.00;;;;;;5098232;28;20500;-62
2023/07/09 10:35:44;;;;;;;6.95;6.25;;;38.10;1.00;;;;;;5098255;28;20648;-61
2023/07/09 10:38:39;;;;;;;6.38;5.88;;;38.40;1.00;;;;;;5098220;28;20244;-64
2023/07/09 10:41:12;;;;;;;6.07;5.57;;;38.60;1.00;;;;;;5096705;28;20233;-62
2023/07/09 10:43:44;;;;;;;5.47;5.07;;;38.50;1.00;;;;;;5096963;28;20205;-63
2023/07/09 10:46:15;;;;;;;6.10;5.50;;;38.70;1.00;;;;;;5096134;28;20194;-62
2023/07/09 10:48:45;;;;;;;6.47;5.88;;;38.60;1.00;;;;;;5096139;28;20252;-61
2023/07/09 10:51:22;;;;;;;6.15;5.65;;;38.70;1.00;;;;;;5096285;28;20206;-62
2023/07/09 10:53:56;;;;;;;6.60;5.90;;;38.80;1.00;;;;;;5096760;28;20304;-62
2023/07/09 10:56:27;;;;;;;6.72;6.10;;;38.90;1.00;;;;;;5096120;28;20232;-62
2023/07/09 10:59:05;;;;;;;7.30;6.10;;;38.70;1.00;;;;;;5097252;28;20205;-62
2023/07/09 11:01:38;;;;;;;5.88;5.05;;;38.80;1.00;;;;;;5096553;28;20209;-63
2023/07/09 11:04:11;;;;;;;7.63;6.00;;;38.80;1.00;;;;;;5096204;28;20220;-62
2023/07/09 11:06:43;;;;;;;6.35;5.75;;;38.90;1.00;;;;;;5096250;28;20201;-63
2023/07/09 11:09:29;;;;;;;6.40;5.80;;;39.30;1.00;;;;;;5096378;28;20233;-62
2023/07/09 11:11:59;;;;;;;8.00;7.30;;;39.60;1.00;;;;;;5095810;28;20210;-62
2023/07/09 11:14:32;;;;;;;6.90;5.90;;;39.90;1.00;;;;;;5096162;28;20553;-63
2023/07/09 11:17:00;;;;;;;6.38;5.88;;;39.30;1.00;;;;;;5097145;28;20321;-60
2023/07/09 11:19:29;;;;;;;6.72;6.03;;;39.10;1.00;;;;;;5097346;28;20209;-62
2023/07/09 11:22:03;;;;;;;5.30;4.55;;;38.90;1.00;;;;;;5097457;28;20258;-61
2023/07/09 11:24:36;;;;;;;7.55;5.90;;;39.00;1.00;;;;;;5097890;28;20211;-61
2023/07/09 11:27:16;;;;;;;6.50;5.80;;;39.60;1.00;;;;;;5096320;28;20206;-62
2023/07/09 11:29:48;;;;;;;7.18;6.57;;;40.00;1.00;;;;;;5097341;28;20252;-63
2023/07/09 11:32:22;;;;;;;7.82;6.97;;;40.10;1.00;;;;;;5097246;28;20213;-62
2023/07/09 11:34:50;;;;;;;6.72;5.90;;;39.80;1.00;;;;;;5096979;28;20212;-62
2023/07/09 11:37:18;;;;;;;6.32;5.82;;;39.60;1.00;;;;;;5097204;28;20229;-62
2023/07/09 11:39:49;;;;;;;6.68;6.22;;;39.30;1.00;;;;;;5096691;28;20324;-61
2023/07/09 11:42:27;;;;;;;6.32;5.28;;;39.70;1.00;;;;;;5097470;28;20300;-63
2023/07/09 11:45:02;;;;;;;6.22;5.70;;;39.30;1.00;;;;;;5096948;28;20304;-63
2023/07/09 11:47:35;;;;;;;7.53;6.13;;;39.30;1.00;;;;;;5097244;28;20289;-63
2023/07/09 11:50:06;;;;;;;5.82;5.32;;;39.70;1.00;;;;;;5097393;28;20547;-63
2023/07/09 11:52:37;;;;;;;6.68;6.03;;;39.90;1.00;;;;;;5097638;28;20290;-63
2023/07/09 11:55:26;;;;;;;6.93;5.45;;;40.10;1.00;;;;;;5096833;28;20301;-63
2023/07/09 11:57:58;;;;;;;11.95;5.47;;;39.80;1.00;;;;;;5096779;28;20233;-62
2023/07/09 12:00:29;;;;;;;6.53;5.93;;;40.20;1.00;;;;;;5097540;28;20210;-63
2023/07/09 12:02:57;;;;;;;6.68;6.05;;;40.10;1.00;;;;;;5096960;28;20206;-62
2023/07/09 12:05:29;;;;;;;6.32;5.78;;;40.10;1.00;;;;;;5097093;28;20205;-61
2023/07/09 12:07:58;;;;;;;6.95;6.35;;;40.10;1.00;;;;;;5095213;28;20198;-62
2023/07/09 12:10:29;;;;;;;6.85;5.03;;;39.80;1.00;;;;;;5095733;28;20205;-62
2023/07/09 12:12:57;;;;;;;7.78;6.63;;;39.60;1.00;;;;;;5095371;28;20236;-62
2023/07/09 12:15:27;;;;;;;7.03;6.35;;;39.30;1.00;;;;;;5095731;28;20212;-62
2023/07/09 12:17:59;;;;;;;5.45;4.60;;;38.90;1.00;;;;;;5095961;28;20701;-62
2023/07/09 12:20:27;;;;;;;6.07;5.57;;;39.00;1.00;;;;;;5096766;28;20494;-61
2023/07/09 12:22:54;;;;;;;7.45;6.65;;;39.00;1.00;;;;;;5095840;28;20241;-62
2023/07/09 12:25:24;;;;;;;5.93;5.40;;;38.90;1.00;;;;;;5096249;28;20289;-62
2023/07/09 12:27:54;;;;;;;6.32;5.82;;;39.20;1.00;;;;;;5097201;28;20489;-61
2023/07/09 12:30:22;;;;;;;5.75;5.25;;;39.50;1.00;;;;;;5100158;28;20255;-65
2023/07/09 12:32:52;;;;;;;6.15;5.65;;;39.10;1.00;;;;;;5099307;28;20251;-62
2023/07/09 12:35:21;;;;;;;5.95;5.35;;;38.70;1.00;;;;;;5100143;28;20198;-62
2023/07/09 12:37:52;;;;;;;6.70;6.07;;;38.40;1.00;;;;;;5099694;28;20226;-61
2023/07/09 12:40:23;;;;;;;7.32;6.70;;;38.40;99.90;;;;;;5099571;28;20284;-61
2023/07/09 12:42:50;;;;;;;6.90;6.30;;;39.00;1.00;;;;;;5099946;28;20588;-63
2023/07/09 12:45:21;;;;;;;8.02;5.68;;;39.60;1.00;;;;;;5100061;28;20206;-61
2023/07/09 12:47:51;;;;;;;7.50;6.80;;;39.60;1.00;;;;;;5100513;28;20656;-62
2023/07/09 12:50:31;;;;;;;7.47;6.57;;;39.10;1.00;;;;;;5100394;28;20244;-62
2023/07/09 12:53:04;;;;;;;5.90;5.43;;;39.30;1.00;;;;;;5100307;28;20255;-63
2023/07/09 12:55:40;;;;;;;6.82;5.60;;;39.10;1.00;;;;;;5099581;28;20625;-62
2023/07/09 12:58:12;;;;;;;7.93;5.93;;;39.20;1.00;;;;;;5100340;28;20708;-62
2023/07/09 13:00:41;;;;;;;6.80;5.75;;;39.40;1.00;;;;;;5100217;28;20205;-62
2023/07/09 13:03:15;;;;;;;6.43;5.72;;;39.70;1.00;;;;;;5100368;28;20210;-61